<?xml version="1.0" encoding="UTF-8" standalone="no" ?>
<gpx xmlns="http://www.topografix.com/GPX/1/1" xmlns:xsi="http://www.w3.org/2001/XMLSchema-instance" xsi:schemaLocation="http://www.topografix.com/GPX/1/1 http://www.topografix.com/GPX/1/1/gpx.xsd" version="1.1" creator="VisuGPX - https://www.visugpx.com">
  <metadata>
    <name>Dans la Forêt de Courléon</name>
    <desc><![CDATA[50min de Tours]]></desc>
  </metadata>
  <wpt lat="47.38969" lon="0.14264">
    <ele>78</ele>
    <name><![CDATA[Place de l'Église]]></name>
  </wpt>
  <wpt lat="47.38539" lon="0.14125">
    <ele>83</ele>
    <name><![CDATA[Le Billot]]></name>
  </wpt>
  <wpt lat="47.38408" lon="0.12962">
    <ele>97</ele>
    <name><![CDATA[Chemin à droite]]></name>
  </wpt>
  <wpt lat="47.3859" lon="0.12003">
    <ele>76</ele>
    <name><![CDATA[Chemin à gauche (GR36)]]></name>
  </wpt>
  <wpt lat="47.38375" lon="0.10888">
    <ele>85</ele>
    <name><![CDATA[Chemin à gauche]]></name>
  </wpt>
  <wpt lat="47.38055" lon="0.10738">
    <ele>101</ele>
    <name><![CDATA[La Bretonnière]]></name>
  </wpt>
  <wpt lat="47.3777" lon="0.11037">
    <ele>96</ele>
    <name><![CDATA[La Maison Neuve]]></name>
  </wpt>
  <wpt lat="47.37497" lon="0.12621">
    <ele>102</ele>
    <name><![CDATA[La Huttière]]></name>
  </wpt>
  <wpt lat="47.36931" lon="0.12255">
    <ele>101</ele>
    <name><![CDATA[Chemin à gauche]]></name>
  </wpt>
  <wpt lat="47.36639" lon="0.13126">
    <ele>122</ele>
    <name><![CDATA[Chemin à gauche]]></name>
  </wpt>
  <wpt lat="47.37793" lon="0.1337">
    <ele>115</ele>
    <name><![CDATA[Chemin à droite]]></name>
  </wpt>
  <wpt lat="47.38152" lon="0.14009">
    <ele>93</ele>
    <name><![CDATA[Chemin à droite en épingle]]></name>
  </wpt>
  <wpt lat="47.37606" lon="0.14874">
    <ele>90</ele>
    <name><![CDATA[Chemin à gauche]]></name>
  </wpt>
  <wpt lat="47.38648" lon="0.14741">
    <ele>75</ele>
    <name><![CDATA[Le Maroir]]></name>
  </wpt>
  <wpt lat="47.38982" lon="0.14382">
    <ele>77</ele>
    <name><![CDATA[Rue de Tourraine]]></name>
  </wpt>
  <wpt lat="47.38968" lon="0.14265">
    <ele>78</ele>
    <name><![CDATA[Place de l'Église]]></name>
  </wpt>
  <trk>
    <name><![CDATA[Dans la Forêt de Courléon]]></name>
    <trkseg>
      <trkpt lat="47.38969" lon="0.14264">
        <ele>78</ele>
        <time>2021-02-20T11:52:11+01:00</time>
      </trkpt>
      <trkpt lat="47.38961" lon="0.1425">
        <ele>78</ele>
        <time>2021-02-20T11:52:16+01:00</time>
      </trkpt>
      <trkpt lat="47.38958" lon="0.1423">
        <ele>77</ele>
        <time>2021-02-20T11:52:21+01:00</time>
      </trkpt>
      <trkpt lat="47.3893" lon="0.14225">
        <ele>77</ele>
        <time>2021-02-20T11:52:26+01:00</time>
      </trkpt>
      <trkpt lat="47.38884" lon="0.14223">
        <ele>77</ele>
        <time>2021-02-20T11:52:31+01:00</time>
      </trkpt>
      <trkpt lat="47.38836" lon="0.1422">
        <ele>79</ele>
        <time>2021-02-20T11:52:36+01:00</time>
      </trkpt>
      <trkpt lat="47.3879" lon="0.14216">
        <ele>79</ele>
        <time>2021-02-20T11:52:41+01:00</time>
      </trkpt>
      <trkpt lat="47.38782" lon="0.14213">
        <ele>79</ele>
        <time>2021-02-20T11:52:46+01:00</time>
      </trkpt>
      <trkpt lat="47.38734" lon="0.14194">
        <ele>80</ele>
        <time>2021-02-20T11:52:51+01:00</time>
      </trkpt>
      <trkpt lat="47.38701" lon="0.14181">
        <ele>81</ele>
        <time>2021-02-20T11:52:56+01:00</time>
      </trkpt>
      <trkpt lat="47.38637" lon="0.14154">
        <ele>83</ele>
        <time>2021-02-20T11:53:01+01:00</time>
      </trkpt>
      <trkpt lat="47.38569" lon="0.14132">
        <ele>82</ele>
        <time>2021-02-20T11:53:06+01:00</time>
      </trkpt>
      <trkpt lat="47.38539" lon="0.14125">
        <ele>83</ele>
        <time>2021-02-20T11:53:11+01:00</time>
      </trkpt>
      <trkpt lat="47.38537" lon="0.14124">
        <ele>83</ele>
        <time>2021-02-20T11:53:16+01:00</time>
      </trkpt>
      <trkpt lat="47.38532" lon="0.1409">
        <ele>83</ele>
        <time>2021-02-20T11:53:21+01:00</time>
      </trkpt>
      <trkpt lat="47.38527" lon="0.13975">
        <ele>85</ele>
        <time>2021-02-20T11:53:26+01:00</time>
      </trkpt>
      <trkpt lat="47.38521" lon="0.13929">
        <ele>86</ele>
        <time>2021-02-20T11:53:31+01:00</time>
      </trkpt>
      <trkpt lat="47.38517" lon="0.13884">
        <ele>87</ele>
        <time>2021-02-20T11:53:36+01:00</time>
      </trkpt>
      <trkpt lat="47.38509" lon="0.13817">
        <ele>90</ele>
        <time>2021-02-20T11:53:41+01:00</time>
      </trkpt>
      <trkpt lat="47.38506" lon="0.1375">
        <ele>93</ele>
        <time>2021-02-20T11:53:46+01:00</time>
      </trkpt>
      <trkpt lat="47.38501" lon="0.13691">
        <ele>94</ele>
        <time>2021-02-20T11:53:51+01:00</time>
      </trkpt>
      <trkpt lat="47.38499" lon="0.13635">
        <ele>95</ele>
        <time>2021-02-20T11:53:56+01:00</time>
      </trkpt>
      <trkpt lat="47.38493" lon="0.13564">
        <ele>97</ele>
        <time>2021-02-20T11:54:01+01:00</time>
      </trkpt>
      <trkpt lat="47.38488" lon="0.13512">
        <ele>96</ele>
        <time>2021-02-20T11:54:06+01:00</time>
      </trkpt>
      <trkpt lat="47.38483" lon="0.13462">
        <ele>94</ele>
        <time>2021-02-20T11:54:11+01:00</time>
      </trkpt>
      <trkpt lat="47.38478" lon="0.13431">
        <ele>92</ele>
        <time>2021-02-20T11:54:16+01:00</time>
      </trkpt>
      <trkpt lat="47.38479" lon="0.13391">
        <ele>91</ele>
        <time>2021-02-20T11:54:21+01:00</time>
      </trkpt>
      <trkpt lat="47.38479" lon="0.13345">
        <ele>90</ele>
        <time>2021-02-20T11:54:26+01:00</time>
      </trkpt>
      <trkpt lat="47.38479" lon="0.13283">
        <ele>91</ele>
        <time>2021-02-20T11:54:31+01:00</time>
      </trkpt>
      <trkpt lat="47.38481" lon="0.13223">
        <ele>93</ele>
        <time>2021-02-20T11:54:36+01:00</time>
      </trkpt>
      <trkpt lat="47.38486" lon="0.13194">
        <ele>93</ele>
        <time>2021-02-20T11:54:41+01:00</time>
      </trkpt>
      <trkpt lat="47.38497" lon="0.1315">
        <ele>93</ele>
        <time>2021-02-20T11:54:46+01:00</time>
      </trkpt>
      <trkpt lat="47.38473" lon="0.13112">
        <ele>95</ele>
        <time>2021-02-20T11:54:51+01:00</time>
      </trkpt>
      <trkpt lat="47.38459" lon="0.13094">
        <ele>96</ele>
        <time>2021-02-20T11:54:56+01:00</time>
      </trkpt>
      <trkpt lat="47.38455" lon="0.13078">
        <ele>96</ele>
        <time>2021-02-20T11:55:01+01:00</time>
      </trkpt>
      <trkpt lat="47.38434" lon="0.13029">
        <ele>97</ele>
        <time>2021-02-20T11:55:06+01:00</time>
      </trkpt>
      <trkpt lat="47.38408" lon="0.12962">
        <ele>97</ele>
        <time>2021-02-20T11:55:11+01:00</time>
      </trkpt>
      <trkpt lat="47.38414" lon="0.12942">
        <ele>96</ele>
        <time>2021-02-20T11:55:16+01:00</time>
      </trkpt>
      <trkpt lat="47.38428" lon="0.12937">
        <ele>95</ele>
        <time>2021-02-20T11:55:21+01:00</time>
      </trkpt>
      <trkpt lat="47.38474" lon="0.12833">
        <ele>94</ele>
        <time>2021-02-20T11:55:26+01:00</time>
      </trkpt>
      <trkpt lat="47.38498" lon="0.12776">
        <ele>96</ele>
        <time>2021-02-20T11:55:31+01:00</time>
      </trkpt>
      <trkpt lat="47.38555" lon="0.12804">
        <ele>95</ele>
        <time>2021-02-20T11:55:36+01:00</time>
      </trkpt>
      <trkpt lat="47.38564" lon="0.1273">
        <ele>98</ele>
        <time>2021-02-20T11:55:41+01:00</time>
      </trkpt>
      <trkpt lat="47.38581" lon="0.12623">
        <ele>93</ele>
        <time>2021-02-20T11:55:46+01:00</time>
      </trkpt>
      <trkpt lat="47.38589" lon="0.12528">
        <ele>90</ele>
        <time>2021-02-20T11:55:51+01:00</time>
      </trkpt>
      <trkpt lat="47.38593" lon="0.12484">
        <ele>89</ele>
        <time>2021-02-20T11:55:56+01:00</time>
      </trkpt>
      <trkpt lat="47.38597" lon="0.12424">
        <ele>89</ele>
        <time>2021-02-20T11:56:01+01:00</time>
      </trkpt>
      <trkpt lat="47.38598" lon="0.12375">
        <ele>89</ele>
        <time>2021-02-20T11:56:06+01:00</time>
      </trkpt>
      <trkpt lat="47.38596" lon="0.1229">
        <ele>85</ele>
        <time>2021-02-20T11:56:11+01:00</time>
      </trkpt>
      <trkpt lat="47.38596" lon="0.12274">
        <ele>84</ele>
        <time>2021-02-20T11:56:16+01:00</time>
      </trkpt>
      <trkpt lat="47.38593" lon="0.12176">
        <ele>80</ele>
        <time>2021-02-20T11:56:21+01:00</time>
      </trkpt>
      <trkpt lat="47.38593" lon="0.12119">
        <ele>78</ele>
        <time>2021-02-20T11:56:26+01:00</time>
      </trkpt>
      <trkpt lat="47.38592" lon="0.12089">
        <ele>76</ele>
        <time>2021-02-20T11:56:31+01:00</time>
      </trkpt>
      <trkpt lat="47.38592" lon="0.1202">
        <ele>76</ele>
        <time>2021-02-20T11:56:36+01:00</time>
      </trkpt>
      <trkpt lat="47.3859" lon="0.12003">
        <ele>76</ele>
        <time>2021-02-20T11:56:41+01:00</time>
      </trkpt>
      <trkpt lat="47.38573" lon="0.12002">
        <ele>76</ele>
        <time>2021-02-20T11:56:46+01:00</time>
      </trkpt>
      <trkpt lat="47.38554" lon="0.12002">
        <ele>76</ele>
        <time>2021-02-20T11:56:51+01:00</time>
      </trkpt>
      <trkpt lat="47.38538" lon="0.11996">
        <ele>77</ele>
        <time>2021-02-20T11:56:56+01:00</time>
      </trkpt>
      <trkpt lat="47.38484" lon="0.11982">
        <ele>78</ele>
        <time>2021-02-20T11:57:01+01:00</time>
      </trkpt>
      <trkpt lat="47.38438" lon="0.11954">
        <ele>79</ele>
        <time>2021-02-20T11:57:06+01:00</time>
      </trkpt>
      <trkpt lat="47.38415" lon="0.11941">
        <ele>80</ele>
        <time>2021-02-20T11:57:11+01:00</time>
      </trkpt>
      <trkpt lat="47.38391" lon="0.11925">
        <ele>80</ele>
        <time>2021-02-20T11:57:16+01:00</time>
      </trkpt>
      <trkpt lat="47.38353" lon="0.11895">
        <ele>79</ele>
        <time>2021-02-20T11:57:21+01:00</time>
      </trkpt>
      <trkpt lat="47.38339" lon="0.11882">
        <ele>79</ele>
        <time>2021-02-20T11:57:26+01:00</time>
      </trkpt>
      <trkpt lat="47.38317" lon="0.11868">
        <ele>79</ele>
        <time>2021-02-20T11:57:31+01:00</time>
      </trkpt>
      <trkpt lat="47.38256" lon="0.1183">
        <ele>79</ele>
        <time>2021-02-20T11:57:36+01:00</time>
      </trkpt>
      <trkpt lat="47.38241" lon="0.11815">
        <ele>79</ele>
        <time>2021-02-20T11:57:41+01:00</time>
      </trkpt>
      <trkpt lat="47.38249" lon="0.11694">
        <ele>81</ele>
        <time>2021-02-20T11:57:46+01:00</time>
      </trkpt>
      <trkpt lat="47.38255" lon="0.11591">
        <ele>82</ele>
        <time>2021-02-20T11:57:51+01:00</time>
      </trkpt>
      <trkpt lat="47.38262" lon="0.11496">
        <ele>82</ele>
        <time>2021-02-20T11:57:56+01:00</time>
      </trkpt>
      <trkpt lat="47.38269" lon="0.11407">
        <ele>81</ele>
        <time>2021-02-20T11:58:01+01:00</time>
      </trkpt>
      <trkpt lat="47.38271" lon="0.11356">
        <ele>82</ele>
        <time>2021-02-20T11:58:06+01:00</time>
      </trkpt>
      <trkpt lat="47.3827" lon="0.11346">
        <ele>82</ele>
        <time>2021-02-20T11:58:11+01:00</time>
      </trkpt>
      <trkpt lat="47.38277" lon="0.1126">
        <ele>82</ele>
        <time>2021-02-20T11:58:16+01:00</time>
      </trkpt>
      <trkpt lat="47.38285" lon="0.11189">
        <ele>83</ele>
        <time>2021-02-20T11:58:21+01:00</time>
      </trkpt>
      <trkpt lat="47.38291" lon="0.11158">
        <ele>84</ele>
        <time>2021-02-20T11:58:26+01:00</time>
      </trkpt>
      <trkpt lat="47.38304" lon="0.11125">
        <ele>84</ele>
        <time>2021-02-20T11:58:31+01:00</time>
      </trkpt>
      <trkpt lat="47.38332" lon="0.11086">
        <ele>85</ele>
        <time>2021-02-20T11:58:36+01:00</time>
      </trkpt>
      <trkpt lat="47.38351" lon="0.11067">
        <ele>85</ele>
        <time>2021-02-20T11:58:41+01:00</time>
      </trkpt>
      <trkpt lat="47.38362" lon="0.11">
        <ele>85</ele>
        <time>2021-02-20T11:58:46+01:00</time>
      </trkpt>
      <trkpt lat="47.38375" lon="0.10888">
        <ele>85</ele>
        <time>2021-02-20T11:58:51+01:00</time>
      </trkpt>
      <trkpt lat="47.38358" lon="0.1087">
        <ele>86</ele>
        <time>2021-02-20T11:58:56+01:00</time>
      </trkpt>
      <trkpt lat="47.38328" lon="0.1085">
        <ele>86</ele>
        <time>2021-02-20T11:59:01+01:00</time>
      </trkpt>
      <trkpt lat="47.38247" lon="0.10802">
        <ele>88</ele>
        <time>2021-02-20T11:59:06+01:00</time>
      </trkpt>
      <trkpt lat="47.38055" lon="0.10738">
        <ele>101</ele>
        <time>2021-02-20T11:59:11+01:00</time>
      </trkpt>
      <trkpt lat="47.37991" lon="0.10839">
        <ele>104</ele>
        <time>2021-02-20T11:59:16+01:00</time>
      </trkpt>
      <trkpt lat="47.37956" lon="0.10884">
        <ele>102</ele>
        <time>2021-02-20T11:59:21+01:00</time>
      </trkpt>
      <trkpt lat="47.37915" lon="0.10916">
        <ele>99</ele>
        <time>2021-02-20T11:59:26+01:00</time>
      </trkpt>
      <trkpt lat="47.37872" lon="0.10944">
        <ele>101</ele>
        <time>2021-02-20T11:59:31+01:00</time>
      </trkpt>
      <trkpt lat="47.37837" lon="0.10972">
        <ele>102</ele>
        <time>2021-02-20T11:59:36+01:00</time>
      </trkpt>
      <trkpt lat="47.37775" lon="0.11033">
        <ele>96</ele>
        <time>2021-02-20T11:59:41+01:00</time>
      </trkpt>
      <trkpt lat="47.3777" lon="0.11037">
        <ele>96</ele>
        <time>2021-02-20T11:59:46+01:00</time>
      </trkpt>
      <trkpt lat="47.37758" lon="0.11134">
        <ele>91</ele>
        <time>2021-02-20T11:59:51+01:00</time>
      </trkpt>
      <trkpt lat="47.37763" lon="0.1125">
        <ele>87</ele>
        <time>2021-02-20T11:59:56+01:00</time>
      </trkpt>
      <trkpt lat="47.37775" lon="0.11418">
        <ele>85</ele>
        <time>2021-02-20T12:00:01+01:00</time>
      </trkpt>
      <trkpt lat="47.37782" lon="0.11518">
        <ele>84</ele>
        <time>2021-02-20T12:00:06+01:00</time>
      </trkpt>
      <trkpt lat="47.37782" lon="0.11554">
        <ele>83</ele>
        <time>2021-02-20T12:00:11+01:00</time>
      </trkpt>
      <trkpt lat="47.37775" lon="0.11573">
        <ele>83</ele>
        <time>2021-02-20T12:00:16+01:00</time>
      </trkpt>
      <trkpt lat="47.37762" lon="0.1159">
        <ele>84</ele>
        <time>2021-02-20T12:00:21+01:00</time>
      </trkpt>
      <trkpt lat="47.37699" lon="0.11641">
        <ele>85</ele>
        <time>2021-02-20T12:00:26+01:00</time>
      </trkpt>
      <trkpt lat="47.37688" lon="0.11647">
        <ele>85</ele>
        <time>2021-02-20T12:00:31+01:00</time>
      </trkpt>
      <trkpt lat="47.37641" lon="0.11672">
        <ele>84</ele>
        <time>2021-02-20T12:00:36+01:00</time>
      </trkpt>
      <trkpt lat="47.3763" lon="0.11696">
        <ele>84</ele>
        <time>2021-02-20T12:00:41+01:00</time>
      </trkpt>
      <trkpt lat="47.37622" lon="0.11795">
        <ele>85</ele>
        <time>2021-02-20T12:00:46+01:00</time>
      </trkpt>
      <trkpt lat="47.37617" lon="0.11864">
        <ele>85</ele>
        <time>2021-02-20T12:00:51+01:00</time>
      </trkpt>
      <trkpt lat="47.37621" lon="0.11886">
        <ele>85</ele>
        <time>2021-02-20T12:00:56+01:00</time>
      </trkpt>
      <trkpt lat="47.37639" lon="0.11932">
        <ele>86</ele>
        <time>2021-02-20T12:01:01+01:00</time>
      </trkpt>
      <trkpt lat="47.37643" lon="0.11961">
        <ele>85</ele>
        <time>2021-02-20T12:01:06+01:00</time>
      </trkpt>
      <trkpt lat="47.37637" lon="0.12008">
        <ele>84</ele>
        <time>2021-02-20T12:01:11+01:00</time>
      </trkpt>
      <trkpt lat="47.37603" lon="0.12153">
        <ele>85</ele>
        <time>2021-02-20T12:01:16+01:00</time>
      </trkpt>
      <trkpt lat="47.3758" lon="0.12251">
        <ele>86</ele>
        <time>2021-02-20T12:01:21+01:00</time>
      </trkpt>
      <trkpt lat="47.37556" lon="0.1235">
        <ele>89</ele>
        <time>2021-02-20T12:01:26+01:00</time>
      </trkpt>
      <trkpt lat="47.37544" lon="0.12414">
        <ele>93</ele>
        <time>2021-02-20T12:01:31+01:00</time>
      </trkpt>
      <trkpt lat="47.37534" lon="0.12465">
        <ele>95</ele>
        <time>2021-02-20T12:01:36+01:00</time>
      </trkpt>
      <trkpt lat="47.3751" lon="0.12564">
        <ele>98</ele>
        <time>2021-02-20T12:01:41+01:00</time>
      </trkpt>
      <trkpt lat="47.37497" lon="0.12621">
        <ele>102</ele>
        <time>2021-02-20T12:01:46+01:00</time>
      </trkpt>
      <trkpt lat="47.37473" lon="0.12616">
        <ele>101</ele>
        <time>2021-02-20T12:01:51+01:00</time>
      </trkpt>
      <trkpt lat="47.37461" lon="0.12609">
        <ele>100</ele>
        <time>2021-02-20T12:01:56+01:00</time>
      </trkpt>
      <trkpt lat="47.37448" lon="0.12603">
        <ele>100</ele>
        <time>2021-02-20T12:02:01+01:00</time>
      </trkpt>
      <trkpt lat="47.37396" lon="0.12579">
        <ele>99</ele>
        <time>2021-02-20T12:02:06+01:00</time>
      </trkpt>
      <trkpt lat="47.37374" lon="0.12569">
        <ele>99</ele>
        <time>2021-02-20T12:02:11+01:00</time>
      </trkpt>
      <trkpt lat="47.37355" lon="0.12555">
        <ele>99</ele>
        <time>2021-02-20T12:02:16+01:00</time>
      </trkpt>
      <trkpt lat="47.3728" lon="0.12512">
        <ele>99</ele>
        <time>2021-02-20T12:02:21+01:00</time>
      </trkpt>
      <trkpt lat="47.37255" lon="0.12493">
        <ele>99</ele>
        <time>2021-02-20T12:02:26+01:00</time>
      </trkpt>
      <trkpt lat="47.37201" lon="0.12449">
        <ele>100</ele>
        <time>2021-02-20T12:02:31+01:00</time>
      </trkpt>
      <trkpt lat="47.37166" lon="0.12424">
        <ele>101</ele>
        <time>2021-02-20T12:02:36+01:00</time>
      </trkpt>
      <trkpt lat="47.37114" lon="0.12394">
        <ele>103</ele>
        <time>2021-02-20T12:02:41+01:00</time>
      </trkpt>
      <trkpt lat="47.37041" lon="0.12345">
        <ele>103</ele>
        <time>2021-02-20T12:02:46+01:00</time>
      </trkpt>
      <trkpt lat="47.37039" lon="0.12344">
        <ele>103</ele>
        <time>2021-02-20T12:02:51+01:00</time>
      </trkpt>
      <trkpt lat="47.36994" lon="0.12317">
        <ele>103</ele>
        <time>2021-02-20T12:02:56+01:00</time>
      </trkpt>
      <trkpt lat="47.36964" lon="0.12284">
        <ele>102</ele>
        <time>2021-02-20T12:03:01+01:00</time>
      </trkpt>
      <trkpt lat="47.36931" lon="0.12255">
        <ele>101</ele>
        <time>2021-02-20T12:03:06+01:00</time>
      </trkpt>
      <trkpt lat="47.36885" lon="0.12372">
        <ele>108</ele>
        <time>2021-02-20T12:03:11+01:00</time>
      </trkpt>
      <trkpt lat="47.36871" lon="0.1241">
        <ele>111</ele>
        <time>2021-02-20T12:03:16+01:00</time>
      </trkpt>
      <trkpt lat="47.36864" lon="0.12438">
        <ele>112</ele>
        <time>2021-02-20T12:03:21+01:00</time>
      </trkpt>
      <trkpt lat="47.36845" lon="0.12508">
        <ele>114</ele>
        <time>2021-02-20T12:03:26+01:00</time>
      </trkpt>
      <trkpt lat="47.36821" lon="0.12591">
        <ele>115</ele>
        <time>2021-02-20T12:03:31+01:00</time>
      </trkpt>
      <trkpt lat="47.36811" lon="0.12615">
        <ele>116</ele>
        <time>2021-02-20T12:03:36+01:00</time>
      </trkpt>
      <trkpt lat="47.36792" lon="0.12671">
        <ele>117</ele>
        <time>2021-02-20T12:03:41+01:00</time>
      </trkpt>
      <trkpt lat="47.36757" lon="0.12769">
        <ele>121</ele>
        <time>2021-02-20T12:03:46+01:00</time>
      </trkpt>
      <trkpt lat="47.36731" lon="0.12839">
        <ele>125</ele>
        <time>2021-02-20T12:03:51+01:00</time>
      </trkpt>
      <trkpt lat="47.36673" lon="0.13019">
        <ele>125</ele>
        <time>2021-02-20T12:03:56+01:00</time>
      </trkpt>
      <trkpt lat="47.36639" lon="0.13126">
        <ele>122</ele>
        <time>2021-02-20T12:04:01+01:00</time>
      </trkpt>
      <trkpt lat="47.36702" lon="0.13131">
        <ele>123</ele>
        <time>2021-02-20T12:04:06+01:00</time>
      </trkpt>
      <trkpt lat="47.36767" lon="0.13129">
        <ele>121</ele>
        <time>2021-02-20T12:04:11+01:00</time>
      </trkpt>
      <trkpt lat="47.36848" lon="0.13127">
        <ele>121</ele>
        <time>2021-02-20T12:04:16+01:00</time>
      </trkpt>
      <trkpt lat="47.36894" lon="0.1313">
        <ele>123</ele>
        <time>2021-02-20T12:04:21+01:00</time>
      </trkpt>
      <trkpt lat="47.36928" lon="0.13139">
        <ele>123</ele>
        <time>2021-02-20T12:04:26+01:00</time>
      </trkpt>
      <trkpt lat="47.36964" lon="0.13147">
        <ele>121</ele>
        <time>2021-02-20T12:04:31+01:00</time>
      </trkpt>
      <trkpt lat="47.37001" lon="0.13156">
        <ele>120</ele>
        <time>2021-02-20T12:04:36+01:00</time>
      </trkpt>
      <trkpt lat="47.37019" lon="0.13158">
        <ele>120</ele>
        <time>2021-02-20T12:04:41+01:00</time>
      </trkpt>
      <trkpt lat="47.37044" lon="0.13161">
        <ele>120</ele>
        <time>2021-02-20T12:04:46+01:00</time>
      </trkpt>
      <trkpt lat="47.37085" lon="0.13165">
        <ele>121</ele>
        <time>2021-02-20T12:04:51+01:00</time>
      </trkpt>
      <trkpt lat="47.37138" lon="0.13172">
        <ele>122</ele>
        <time>2021-02-20T12:04:56+01:00</time>
      </trkpt>
      <trkpt lat="47.37164" lon="0.1318">
        <ele>122</ele>
        <time>2021-02-20T12:05:01+01:00</time>
      </trkpt>
      <trkpt lat="47.37184" lon="0.1318">
        <ele>122</ele>
        <time>2021-02-20T12:05:06+01:00</time>
      </trkpt>
      <trkpt lat="47.37212" lon="0.13183">
        <ele>121</ele>
        <time>2021-02-20T12:05:11+01:00</time>
      </trkpt>
      <trkpt lat="47.37258" lon="0.13187">
        <ele>121</ele>
        <time>2021-02-20T12:05:16+01:00</time>
      </trkpt>
      <trkpt lat="47.37296" lon="0.13192">
        <ele>121</ele>
        <time>2021-02-20T12:05:21+01:00</time>
      </trkpt>
      <trkpt lat="47.37356" lon="0.13196">
        <ele>120</ele>
        <time>2021-02-20T12:05:26+01:00</time>
      </trkpt>
      <trkpt lat="47.37373" lon="0.13197">
        <ele>120</ele>
        <time>2021-02-20T12:05:31+01:00</time>
      </trkpt>
      <trkpt lat="47.37401" lon="0.132">
        <ele>120</ele>
        <time>2021-02-20T12:05:36+01:00</time>
      </trkpt>
      <trkpt lat="47.37423" lon="0.13201">
        <ele>120</ele>
        <time>2021-02-20T12:05:41+01:00</time>
      </trkpt>
      <trkpt lat="47.37441" lon="0.13207">
        <ele>119</ele>
        <time>2021-02-20T12:05:46+01:00</time>
      </trkpt>
      <trkpt lat="47.37466" lon="0.13214">
        <ele>118</ele>
        <time>2021-02-20T12:05:51+01:00</time>
      </trkpt>
      <trkpt lat="47.3749" lon="0.1322">
        <ele>117</ele>
        <time>2021-02-20T12:05:56+01:00</time>
      </trkpt>
      <trkpt lat="47.37508" lon="0.13227">
        <ele>117</ele>
        <time>2021-02-20T12:06:01+01:00</time>
      </trkpt>
      <trkpt lat="47.37527" lon="0.13232">
        <ele>117</ele>
        <time>2021-02-20T12:06:06+01:00</time>
      </trkpt>
      <trkpt lat="47.37545" lon="0.13238">
        <ele>117</ele>
        <time>2021-02-20T12:06:11+01:00</time>
      </trkpt>
      <trkpt lat="47.37557" lon="0.13242">
        <ele>117</ele>
        <time>2021-02-20T12:06:16+01:00</time>
      </trkpt>
      <trkpt lat="47.37571" lon="0.1325">
        <ele>118</ele>
        <time>2021-02-20T12:06:21+01:00</time>
      </trkpt>
      <trkpt lat="47.37607" lon="0.13266">
        <ele>118</ele>
        <time>2021-02-20T12:06:26+01:00</time>
      </trkpt>
      <trkpt lat="47.3765" lon="0.13285">
        <ele>118</ele>
        <time>2021-02-20T12:06:31+01:00</time>
      </trkpt>
      <trkpt lat="47.37695" lon="0.13312">
        <ele>118</ele>
        <time>2021-02-20T12:06:36+01:00</time>
      </trkpt>
      <trkpt lat="47.37738" lon="0.13337">
        <ele>117</ele>
        <time>2021-02-20T12:06:41+01:00</time>
      </trkpt>
      <trkpt lat="47.37772" lon="0.13355">
        <ele>116</ele>
        <time>2021-02-20T12:06:46+01:00</time>
      </trkpt>
      <trkpt lat="47.37793" lon="0.1337">
        <ele>115</ele>
        <time>2021-02-20T12:06:51+01:00</time>
      </trkpt>
      <trkpt lat="47.37759" lon="0.1339">
        <ele>114</ele>
        <time>2021-02-20T12:06:56+01:00</time>
      </trkpt>
      <trkpt lat="47.37725" lon="0.13419">
        <ele>113</ele>
        <time>2021-02-20T12:07:01+01:00</time>
      </trkpt>
      <trkpt lat="47.37672" lon="0.13476">
        <ele>114</ele>
        <time>2021-02-20T12:07:06+01:00</time>
      </trkpt>
      <trkpt lat="47.37569" lon="0.13557">
        <ele>115</ele>
        <time>2021-02-20T12:07:11+01:00</time>
      </trkpt>
      <trkpt lat="47.37449" lon="0.13623">
        <ele>115</ele>
        <time>2021-02-20T12:07:16+01:00</time>
      </trkpt>
      <trkpt lat="47.37535" lon="0.138">
        <ele>115</ele>
        <time>2021-02-20T12:07:21+01:00</time>
      </trkpt>
      <trkpt lat="47.37596" lon="0.13905">
        <ele>115</ele>
        <time>2021-02-20T12:07:26+01:00</time>
      </trkpt>
      <trkpt lat="47.3766" lon="0.13887">
        <ele>115</ele>
        <time>2021-02-20T12:07:31+01:00</time>
      </trkpt>
      <trkpt lat="47.37697" lon="0.13885">
        <ele>114</ele>
        <time>2021-02-20T12:07:36+01:00</time>
      </trkpt>
      <trkpt lat="47.37728" lon="0.13889">
        <ele>113</ele>
        <time>2021-02-20T12:07:41+01:00</time>
      </trkpt>
      <trkpt lat="47.37894" lon="0.1395">
        <ele>107</ele>
        <time>2021-02-20T12:07:46+01:00</time>
      </trkpt>
      <trkpt lat="47.3793" lon="0.13965">
        <ele>106</ele>
        <time>2021-02-20T12:07:51+01:00</time>
      </trkpt>
      <trkpt lat="47.3799" lon="0.14005">
        <ele>102</ele>
        <time>2021-02-20T12:07:56+01:00</time>
      </trkpt>
      <trkpt lat="47.38011" lon="0.14014">
        <ele>101</ele>
        <time>2021-02-20T12:08:01+01:00</time>
      </trkpt>
      <trkpt lat="47.38152" lon="0.14009">
        <ele>93</ele>
        <time>2021-02-20T12:08:06+01:00</time>
      </trkpt>
      <trkpt lat="47.38142" lon="0.14021">
        <ele>94</ele>
        <time>2021-02-20T12:08:11+01:00</time>
      </trkpt>
      <trkpt lat="47.38118" lon="0.14036">
        <ele>95</ele>
        <time>2021-02-20T12:08:16+01:00</time>
      </trkpt>
      <trkpt lat="47.38078" lon="0.14079">
        <ele>99</ele>
        <time>2021-02-20T12:08:21+01:00</time>
      </trkpt>
      <trkpt lat="47.38057" lon="0.141">
        <ele>101</ele>
        <time>2021-02-20T12:08:26+01:00</time>
      </trkpt>
      <trkpt lat="47.38018" lon="0.14134">
        <ele>102</ele>
        <time>2021-02-20T12:08:31+01:00</time>
      </trkpt>
      <trkpt lat="47.37994" lon="0.14148">
        <ele>102</ele>
        <time>2021-02-20T12:08:36+01:00</time>
      </trkpt>
      <trkpt lat="47.37968" lon="0.14161">
        <ele>104</ele>
        <time>2021-02-20T12:08:41+01:00</time>
      </trkpt>
      <trkpt lat="47.37949" lon="0.14183">
        <ele>104</ele>
        <time>2021-02-20T12:08:46+01:00</time>
      </trkpt>
      <trkpt lat="47.37937" lon="0.14201">
        <ele>104</ele>
        <time>2021-02-20T12:08:51+01:00</time>
      </trkpt>
      <trkpt lat="47.37899" lon="0.14284">
        <ele>101</ele>
        <time>2021-02-20T12:08:56+01:00</time>
      </trkpt>
      <trkpt lat="47.3788" lon="0.14319">
        <ele>99</ele>
        <time>2021-02-20T12:09:01+01:00</time>
      </trkpt>
      <trkpt lat="47.37866" lon="0.14337">
        <ele>98</ele>
        <time>2021-02-20T12:09:06+01:00</time>
      </trkpt>
      <trkpt lat="47.37825" lon="0.1438">
        <ele>98</ele>
        <time>2021-02-20T12:09:11+01:00</time>
      </trkpt>
      <trkpt lat="47.37799" lon="0.14403">
        <ele>98</ele>
        <time>2021-02-20T12:09:16+01:00</time>
      </trkpt>
      <trkpt lat="47.37768" lon="0.14429">
        <ele>98</ele>
        <time>2021-02-20T12:09:21+01:00</time>
      </trkpt>
      <trkpt lat="47.37746" lon="0.14455">
        <ele>99</ele>
        <time>2021-02-20T12:09:26+01:00</time>
      </trkpt>
      <trkpt lat="47.37737" lon="0.14476">
        <ele>99</ele>
        <time>2021-02-20T12:09:31+01:00</time>
      </trkpt>
      <trkpt lat="47.37736" lon="0.14519">
        <ele>99</ele>
        <time>2021-02-20T12:09:36+01:00</time>
      </trkpt>
      <trkpt lat="47.3777" lon="0.14597">
        <ele>99</ele>
        <time>2021-02-20T12:09:41+01:00</time>
      </trkpt>
      <trkpt lat="47.37786" lon="0.14643">
        <ele>98</ele>
        <time>2021-02-20T12:09:46+01:00</time>
      </trkpt>
      <trkpt lat="47.37784" lon="0.1466">
        <ele>98</ele>
        <time>2021-02-20T12:09:51+01:00</time>
      </trkpt>
      <trkpt lat="47.37698" lon="0.14766">
        <ele>94</ele>
        <time>2021-02-20T12:09:56+01:00</time>
      </trkpt>
      <trkpt lat="47.37644" lon="0.14832">
        <ele>88</ele>
        <time>2021-02-20T12:10:01+01:00</time>
      </trkpt>
      <trkpt lat="47.37606" lon="0.14874">
        <ele>90</ele>
        <time>2021-02-20T12:10:06+01:00</time>
      </trkpt>
      <trkpt lat="47.37615" lon="0.14883">
        <ele>90</ele>
        <time>2021-02-20T12:10:11+01:00</time>
      </trkpt>
      <trkpt lat="47.37694" lon="0.14944">
        <ele>94</ele>
        <time>2021-02-20T12:10:16+01:00</time>
      </trkpt>
      <trkpt lat="47.37773" lon="0.15007">
        <ele>101</ele>
        <time>2021-02-20T12:10:21+01:00</time>
      </trkpt>
      <trkpt lat="47.37789" lon="0.15018">
        <ele>102</ele>
        <time>2021-02-20T12:10:26+01:00</time>
      </trkpt>
      <trkpt lat="47.37836" lon="0.15038">
        <ele>105</ele>
        <time>2021-02-20T12:10:31+01:00</time>
      </trkpt>
      <trkpt lat="47.37907" lon="0.15078">
        <ele>108</ele>
        <time>2021-02-20T12:10:36+01:00</time>
      </trkpt>
      <trkpt lat="47.3798" lon="0.15126">
        <ele>103</ele>
        <time>2021-02-20T12:10:41+01:00</time>
      </trkpt>
      <trkpt lat="47.38024" lon="0.15152">
        <ele>99</ele>
        <time>2021-02-20T12:10:46+01:00</time>
      </trkpt>
      <trkpt lat="47.38055" lon="0.15162">
        <ele>97</ele>
        <time>2021-02-20T12:10:51+01:00</time>
      </trkpt>
      <trkpt lat="47.38087" lon="0.15162">
        <ele>96</ele>
        <time>2021-02-20T12:10:56+01:00</time>
      </trkpt>
      <trkpt lat="47.381" lon="0.15169">
        <ele>96</ele>
        <time>2021-02-20T12:11:01+01:00</time>
      </trkpt>
      <trkpt lat="47.38116" lon="0.15158">
        <ele>96</ele>
        <time>2021-02-20T12:11:06+01:00</time>
      </trkpt>
      <trkpt lat="47.38159" lon="0.15142">
        <ele>96</ele>
        <time>2021-02-20T12:11:11+01:00</time>
      </trkpt>
      <trkpt lat="47.38204" lon="0.15116">
        <ele>97</ele>
        <time>2021-02-20T12:11:16+01:00</time>
      </trkpt>
      <trkpt lat="47.3825" lon="0.15073">
        <ele>97</ele>
        <time>2021-02-20T12:11:21+01:00</time>
      </trkpt>
      <trkpt lat="47.38277" lon="0.15041">
        <ele>98</ele>
        <time>2021-02-20T12:11:26+01:00</time>
      </trkpt>
      <trkpt lat="47.383" lon="0.14995">
        <ele>99</ele>
        <time>2021-02-20T12:11:31+01:00</time>
      </trkpt>
      <trkpt lat="47.38327" lon="0.14947">
        <ele>95</ele>
        <time>2021-02-20T12:11:36+01:00</time>
      </trkpt>
      <trkpt lat="47.3834" lon="0.14921">
        <ele>93</ele>
        <time>2021-02-20T12:11:41+01:00</time>
      </trkpt>
      <trkpt lat="47.38375" lon="0.14883">
        <ele>88</ele>
        <time>2021-02-20T12:11:46+01:00</time>
      </trkpt>
      <trkpt lat="47.38392" lon="0.14866">
        <ele>86</ele>
        <time>2021-02-20T12:11:51+01:00</time>
      </trkpt>
      <trkpt lat="47.38437" lon="0.14844">
        <ele>82</ele>
        <time>2021-02-20T12:11:56+01:00</time>
      </trkpt>
      <trkpt lat="47.38491" lon="0.14824">
        <ele>77</ele>
        <time>2021-02-20T12:12:01+01:00</time>
      </trkpt>
      <trkpt lat="47.38593" lon="0.14773">
        <ele>75</ele>
        <time>2021-02-20T12:12:06+01:00</time>
      </trkpt>
      <trkpt lat="47.3862" lon="0.14756">
        <ele>75</ele>
        <time>2021-02-20T12:12:11+01:00</time>
      </trkpt>
      <trkpt lat="47.38648" lon="0.14741">
        <ele>75</ele>
        <time>2021-02-20T12:12:16+01:00</time>
      </trkpt>
      <trkpt lat="47.38644" lon="0.14711">
        <ele>76</ele>
        <time>2021-02-20T12:12:21+01:00</time>
      </trkpt>
      <trkpt lat="47.38753" lon="0.1467">
        <ele>75</ele>
        <time>2021-02-20T12:12:26+01:00</time>
      </trkpt>
      <trkpt lat="47.38762" lon="0.14655">
        <ele>75</ele>
        <time>2021-02-20T12:12:31+01:00</time>
      </trkpt>
      <trkpt lat="47.38753" lon="0.14606">
        <ele>76</ele>
        <time>2021-02-20T12:12:36+01:00</time>
      </trkpt>
      <trkpt lat="47.38761" lon="0.1458">
        <ele>77</ele>
        <time>2021-02-20T12:12:41+01:00</time>
      </trkpt>
      <trkpt lat="47.38823" lon="0.14525">
        <ele>77</ele>
        <time>2021-02-20T12:12:46+01:00</time>
      </trkpt>
      <trkpt lat="47.38886" lon="0.14471">
        <ele>77</ele>
        <time>2021-02-20T12:12:51+01:00</time>
      </trkpt>
      <trkpt lat="47.38932" lon="0.14433">
        <ele>77</ele>
        <time>2021-02-20T12:12:56+01:00</time>
      </trkpt>
      <trkpt lat="47.38955" lon="0.14409">
        <ele>77</ele>
        <time>2021-02-20T12:13:01+01:00</time>
      </trkpt>
      <trkpt lat="47.38982" lon="0.14382">
        <ele>77</ele>
        <time>2021-02-20T12:13:06+01:00</time>
      </trkpt>
      <trkpt lat="47.38962" lon="0.14332">
        <ele>77</ele>
        <time>2021-02-20T12:13:11+01:00</time>
      </trkpt>
      <trkpt lat="47.3896" lon="0.143">
        <ele>77</ele>
        <time>2021-02-20T12:13:16+01:00</time>
      </trkpt>
      <trkpt lat="47.38959" lon="0.14277">
        <ele>78</ele>
        <time>2021-02-20T12:13:21+01:00</time>
      </trkpt>
      <trkpt lat="47.38968" lon="0.14265">
        <ele>78</ele>
        <time>2021-02-20T12:13:26+01:00</time>
      </trkpt>
    </trkseg>
  </trk>
</gpx>